Time;durP1;ratioP1;P1;durP2;ratioP2;P2;SDS_P1;SDS_P2;PMS_P1;PMS_P2;Temp;Humidity;BMP_temperature;BMP_pressure;BME280_temperature;BME280_humidity;BME280_pressure;Samples;Min_cycle;Max_cycle;Signal;HPM_P1;HPM_P2
2022/11/07 00:00:53;;;;;;;76.67;33.23;;;;;;;5.37;100.00;100152.97;1678127;84;21487;-76
2022/11/07 00:03:27;;;;;;;73.75;32.33;;;;;;;5.39;100.00;100148.63;1671025;85;21526;-75
2022/11/07 00:06:02;;;;;;;76.60;32.70;;;;;;;5.40;100.00;100151.63;1634377;86;21612;-76
2022/11/07 00:08:33;;;;;;;75.72;31.95;;;;;;;5.40;100.00;100148.89;1599785;86;21022;-76
2022/11/07 00:11:01;;;;;;;71.87;32.13;;;;;;;5.41;100.00;100149.17;1632532;86;21330;-76
2022/11/07 00:13:34;;;;;;;71.50;31.42;;;;;;;5.41;100.00;100149.17;1631191;86;21011;-76
2022/11/07 00:16:09;;;;;;;69.97;31.15;;;;;;;5.43;100.00;100151.09;1630058;86;21093;-76
2022/11/07 00:18:43;;;;;;;65.35;29.60;;;;;;;5.43;100.00;100134.20;1631149;86;20960;-76
2022/11/07 00:21:13;;;;;;;71.40;32.48;;;;;;;5.43;100.00;100142.92;1633318;86;21006;-75
2022/11/07 00:23:44;;;;;;;76.05;31.10;;;;;;;5.44;100.00;100141.83;1605055;88;20880;-75
2022/11/07 00:26:19;;;;;;;66.67;31.82;;;;;;;5.44;100.00;100144.02;1629110;86;21035;-76
2022/11/07 00:28:55;;;;;;;67.78;31.23;;;;;;;5.45;100.00;100143.47;1634622;87;21008;-77
2022/11/07 00:31:25;;;;;;;65.70;31.57;;;;;;;5.45;100.00;100143.47;1626851;86;20927;-76
2022/11/07 00:33:56;;;;;;;69.32;31.97;;;;;;;5.46;100.00;100133.67;1632746;86;21091;-77
2022/11/07 00:36:28;;;;;;;69.92;30.77;;;;;;;5.46;100.00;100130.95;1630280;87;21069;-76
2022/11/07 00:38:58;;;;;;;66.05;31.10;;;;;;;5.44;100.00;100131.76;1635050;86;21070;-77
2022/11/07 00:41:26;;;;;;;74.17;32.55;;;;;;;5.44;100.00;100131.76;1606102;87;20967;-76
2022/11/07 00:43:55;;;;;;;72.95;32.83;;;;;;;5.46;100.00;100128.23;1634570;86;21050;-76
2022/11/07 00:46:26;;;;;;;70.52;32.85;;;;;;;5.46;100.00;100132.86;1603842;87;21150;-76
2022/11/07 00:48:58;;;;;;;61.65;29.57;;;;;;;5.46;100.00;100132.86;1675987;84;20951;-76
2022/11/07 00:51:28;;;;;;;70.78;32.73;;;;;;;5.46;100.00;100131.49;1672882;84;21437;-76
2022/11/07 00:53:58;;;;;;;68.05;31.33;;;;;;;5.46;100.00;100135.58;1666821;84;21671;-77
2022/11/07 00:56:28;;;;;;;73.78;32.38;;;;;;;5.46;100.00;100135.58;1670649;84;21038;-77
2022/11/07 00:59:00;;;;;;;67.45;31.85;;;;;;;5.46;100.00;100135.58;1669716;85;21022;-77
2022/11/07 01:01:29;;;;;;;65.85;30.57;;;;;;;5.47;100.00;100135.86;1671820;84;21990;-77
2022/11/07 01:06:51;;;;;;;69.15;30.15;;;;;;;5.48;100.00;100132.05;1670790;84;21502;-77
2022/11/07 01:09:20;;;;;;;67.55;31.05;;;;;;;5.46;100.00;100120.06;1671911;85;21046;-77
2022/11/07 01:11:48;;;;;;;71.85;31.37;;;;;;;5.48;100.00;100119.79;1672676;85;21691;-77
2022/11/07 01:14:21;;;;;;;63.98;30.32;;;;;;;5.48;100.00;100119.79;1668521;84;21294;-77
2022/11/07 01:16:54;;;;;;;60.98;26.70;;;;;;;5.49;100.00;100114.08;1632628;85;21629;-76
2022/11/07 01:19:23;;;;;;;69.72;31.95;;;;;;;5.49;100.00;100105.91;1634446;86;21396;-77
2022/11/07 01:21:49;;;;;;;70.32;29.67;;;;;;;5.50;100.00;100106.72;1631973;86;21050;-77
2022/11/07 01:24:16;;;;;;;57.53;27.32;;;;;;;5.51;100.00;100107.00;1634319;86;21078;-77
2022/11/07 01:26:48;;;;;;;73.83;32.13;;;;;;;5.51;100.00;100106.45;1632408;87;22017;-75
2022/11/07 01:29:19;;;;;;;72.90;32.73;;;;;;;5.52;100.00;100101.83;1630981;87;20991;-76
2022/11/07 01:31:51;;;;;;;72.95;32.15;;;;;;;5.53;100.00;100096.66;1634369;87;21067;-76
2022/11/07 01:34:27;;;;;;;70.95;31.93;;;;;;;5.53;100.00;100091.20;1631980;86;21035;-75
2022/11/07 01:36:57;;;;;;;64.65;31.93;;;;;;;5.54;100.00;100087.40;1643545;85;21522;-76
2022/11/07 01:39:28;;;;;;;70.22;32.55;;;;;;;5.53;100.00;100083.86;1629135;86;21628;-76
2022/11/07 01:41:54;;;;;;;68.10;31.68;;;;;;;5.54;100.00;100085.49;1662500;85;21090;-76
2022/11/07 01:44:29;;;;;;;59.70;30.30;;;;;;;5.55;100.00;100087.67;1657820;85;20963;-76
2022/11/07 01:46:59;;;;;;;73.85;31.48;;;;;;;5.55;100.00;100078.96;1657795;85;20971;-76
2022/11/07 01:49:36;;;;;;;65.50;29.60;;;;;;;5.56;100.00;100079.78;1663896;84;21431;-77
2022/11/07 01:52:12;;;;;;;61.80;30.97;;;;;;;5.58;100.00;100081.14;1690279;83;21033;-77
2022/11/07 01:54:52;;;;;;;60.12;29.60;;;;;;;5.58;100.00;100079.78;1640119;85;21003;-77
2022/11/07 01:57:25;;;;;;;72.25;33.40;;;;;;;5.60;100.00;100078.97;1652402;85;21083;-77
2022/11/07 01:59:54;;;;;;;63.60;31.07;;;;;;;5.59;100.00;100073.25;1646722;86;21054;-77
2022/11/07 02:02:23;;;;;;;61.45;30.60;;;;;;;5.60;100.00;100075.43;1657429;85;20896;-77
2022/11/07 02:04:57;;;;;;;65.50;31.27;;;;;;;5.59;100.00;100074.61;1659761;85;21315;-77
2022/11/07 02:07:25;;;;;;;62.65;31.95;;;;;;;5.60;100.00;100068.63;1658366;85;21577;-77
2022/11/07 02:09:57;;;;;;;63.92;29.67;;;;;;;5.60;100.00;100066.72;1658819;85;21089;-77
2022/11/07 02:12:27;;;;;;;66.00;31.95;;;;;;;5.60;100.00;100068.63;1663045;85;21570;-77
2022/11/07 02:14:58;;;;;;;64.42;32.48;;;;;;;5.60;100.00;100068.63;1657033;85;21538;-77
2022/11/07 02:17:31;;;;;;;60.15;30.00;;;;;;;5.60;100.00;100068.63;1660197;85;21266;-77
2022/11/07 02:20:01;;;;;;;63.58;30.95;;;;;;;5.62;100.00;100069.17;1658072;85;20999;-77
2022/11/07 02:22:57;;;;;;;66.60;31.07;;;;;;;5.62;100.00;100060.45;1660344;85;20987;-76
2022/11/07 02:25:26;;;;;;;58.95;29.40;;;;;;;5.61;100.00;100054.73;1618140;88;21524;-77
2022/11/07 02:28:01;;;;;;;71.22;31.93;;;;;;;5.60;100.00;100050.37;1642976;86;21136;-77
2022/11/07 02:30:32;;;;;;;67.72;30.75;;;;;;;5.60;100.00;100060.45;1664765;83;21183;-77
2022/11/07 02:33:04;;;;;;;65.28;33.25;;;;;;;5.61;100.00;100056.64;1700520;83;20926;-76
2022/11/07 02:35:46;;;;;;;70.03;31.00;;;;;;;5.61;100.00;100056.64;1700002;83;20892;-77
2022/11/07 02:38:31;;;;;;;60.17;30.95;;;;;;;5.60;100.00;100057.18;1649406;86;21006;-76
2022/11/07 02:41:09;;;;;;;63.10;30.20;;;;;;;5.62;100.00;100058.27;1658510;85;21562;-76
2022/11/07 02:43:41;;;;;;;59.85;29.60;;;;;;;5.61;100.00;100063.45;1630275;86;20920;-77
2022/11/07 02:46:11;;;;;;;61.30;31.30;;;;;;;5.61;100.00;100056.64;1629444;86;20975;-77
2022/11/07 02:48:53;;;;;;;67.35;32.75;;;;;;;5.61;100.00;100057.45;1700949;83;21513;-76
2022/11/07 02:51:26;;;;;;;65.28;31.33;;;;;;;5.62;100.00;100055.00;1660346;85;21031;-77
2022/11/07 02:53:59;;;;;;;60.85;29.48;;;;;;;5.60;100.00;100048.19;1657506;85;21068;-76
2022/11/07 02:56:31;;;;;;;64.70;31.85;;;;;;;5.61;100.00;100054.73;1659153;85;22011;-76
2022/11/07 02:59:02;;;;;;;62.78;30.92;;;;;;;5.62;100.00;100058.27;1662237;85;21546;-75
2022/11/07 03:01:34;;;;;;;67.12;31.93;;;;;;;5.62;100.00;100053.64;1658642;85;21010;-77
2022/11/07 03:04:05;;;;;;;57.95;29.42;;;;;;;5.62;100.00;100057.73;1660737;85;21054;-76
2022/11/07 03:06:40;;;;;;;66.37;32.00;;;;;;;5.63;100.00;100048.47;1671583;85;21130;-76
2022/11/07 03:09:11;;;;;;;62.93;29.57;;;;;;;5.63;100.00;100056.64;1660430;85;21252;-75
2022/11/07 03:11:43;;;;;;;64.40;32.40;;;;;;;5.64;100.00;100054.73;1661195;85;20934;-75
2022/11/07 03:14:15;;;;;;;63.30;30.40;;;;;;;5.64;100.00;100054.73;1657082;85;21122;-75
2022/11/07 03:16:44;;;;;;;;;;;;;;;5.64;100.00;100043.84;1672572;83;20891;-76
2022/11/07 03:19:13;;;;;;;59.53;27.13;;;;;;;5.65;100.00;100049.56;1702415;83;20125;-75
2022/11/07 03:21:42;;;;;;;61.18;30.92;;;;;;;5.67;100.00;100054.73;1704645;83;21179;-75
2022/11/07 03:24:20;;;;;;;62.55;30.50;;;;;;;5.67;100.00;100054.73;1700454;83;20983;-75
2022/11/07 03:26:51;;;;;;;59.70;31.23;;;;;;;5.69;100.00;100053.92;1694318;83;20962;-75
2022/11/07 03:29:21;;;;;;;57.93;29.63;;;;;;;5.70;100.00;100054.20;1678873;83;20971;-74
2022/11/07 03:31:52;;;;;;;57.85;29.25;;;;;;;5.71;100.00;100059.92;1699640;83;20915;-75
2022/11/07 03:34:28;;;;;;;57.13;29.30;;;;;;;5.72;100.00;100057.47;1700482;83;21191;-73
2022/11/07 03:37:02;;;;;;;63.83;30.85;;;;;;;5.72;100.00;100055.56;1702194;83;20943;-73
2022/11/07 03:39:38;;;;;;;58.83;28.98;;;;;;;5.74;100.00;100056.11;1704073;83;21087;-75
2022/11/07 03:42:10;;;;;;;56.00;28.42;;;;;;;5.76;100.00;100061.28;1626162;86;21119;-75
2022/11/07 03:44:37;;;;;;;63.15;31.20;;;;;;;5.77;100.00;100061.56;1658121;85;21054;-74
2022/11/07 03:47:07;;;;;;;55.70;29.30;;;;;;;5.77;100.00;100061.56;1661879;85;21250;-74
2022/11/07 03:49:42;;;;;;;55.20;28.70;;;;;;;5.78;100.00;100059.08;1661495;85;20966;-74
2022/11/07 03:52:11;;;;;;;58.83;30.37;;;;;;;5.78;100.00;100054.98;1657994;85;20960;-75
2022/11/07 03:54:39;;;;;;;47.62;26.12;;;;;;;5.79;100.00;100062.89;1703483;83;20971;-75
2022/11/07 03:57:10;;;;;;;57.93;30.88;;;;;;;5.79;100.00;100058.80;1699797;83;21502;-76
2022/11/07 03:59:40;;;;;;;51.25;28.65;;;;;;;5.80;100.00;100057.72;1702198;83;25044;-76
2022/11/07 04:02:09;;;;;;;55.25;28.05;;;;;;;5.82;100.00;100062.34;1705861;83;21507;-76
2022/11/07 04:04:40;;;;;;;52.00;27.20;;;;;;;5.81;100.00;100055.27;1703658;83;21582;-77
2022/11/07 04:07:08;;;;;;;45.65;25.48;;;;;;;5.82;100.00;100050.09;1702082;83;21089;-76
2022/11/07 04:09:44;;;;;;;60.35;30.48;;;;;;;5.82;100.00;100048.72;1698374;83;20979;-76
2022/11/07 04:17:51;;;;;;;46.90;26.25;;;;;;;5.84;100.00;100047.91;1705240;83;21074;-75
2022/11/07 04:20:21;;;;;;;55.92;27.85;;;;;;;5.84;100.00;100043.00;1696331;83;20998;-74
2022/11/07 04:22:55;;;;;;;45.40;25.90;;;;;;;5.85;100.00;100047.37;1697565;83;20999;-74
2022/11/07 04:28:18;;;;;;;48.33;25.88;;;;;;;5.86;100.00;100047.09;1664968;85;20958;-74
2022/11/07 04:30:56;;;;;;;45.38;25.95;;;;;;;5.84;100.00;100040.28;1668376;85;21006;-75
2022/11/07 04:33:22;;;;;;;56.00;28.45;;;;;;;5.84;100.00;100040.28;1676391;84;21011;-75
2022/11/07 04:35:54;;;;;;;47.17;25.43;;;;;;;5.84;100.00;100042.46;1639385;86;21100;-76
2022/11/07 04:38:22;;;;;;;50.90;26.40;;;;;;;5.85;100.00;100050.91;1668551;84;21435;-76
2022/11/07 04:41:00;;;;;;;48.85;26.27;;;;;;;5.85;100.00;100040.55;1633359;85;20955;-75
2022/11/07 04:43:31;;;;;;;47.27;26.02;;;;;;;5.84;100.00;100041.09;1672588;85;21042;-75
2022/11/07 04:46:00;;;;;;;52.90;27.30;;;;;;;5.84;100.00;100045.19;1676973;84;21104;-75
2022/11/07 04:48:33;;;;;;;48.60;24.90;;;;;;;5.85;100.00;100040.55;1676813;85;21014;-75
2022/11/07 04:51:01;;;;;;;43.83;24.92;;;;;;;5.83;100.00;100042.19;1684539;82;21163;-75
2022/11/07 04:53:31;;;;;;;48.50;25.25;;;;;;;5.85;100.00;100044.09;1673249;85;21007;-75
2022/11/07 04:55:59;;;;;;;44.23;24.40;;;;;;;5.85;100.00;100044.09;1670691;85;21129;-75
2022/11/07 04:58:30;;;;;;;39.63;23.75;;;;;;;5.85;100.00;100050.91;1673187;85;21673;-75
2022/11/07 05:01:01;;;;;;;40.52;23.18;;;;;;;5.84;100.00;100046.55;1665003;85;20963;-75
2022/11/07 05:03:36;;;;;;;40.67;23.50;;;;;;;5.85;100.00;100048.73;1669747;85;21166;-76
2022/11/07 05:06:03;;;;;;;44.25;24.52;;;;;;;5.85;100.00;100040.55;1630972;86;21015;-76
2022/11/07 05:08:31;;;;;;;49.85;22.45;;;;;;;5.84;100.00;100042.46;1617951;87;20965;-74
2022/11/07 05:10:59;;;;;;;41.10;23.75;;;;;;;5.84;100.00;100040.28;1635213;86;21569;-75
2022/11/07 05:13:30;;;;;;;40.58;22.93;;;;;;;5.84;100.00;100043.82;1627289;86;21015;-73
2022/11/07 05:16:02;;;;;;;41.42;22.77;;;;;;;5.84;100.00;100035.65;1622997;86;20944;-77
2022/11/07 05:18:32;;;;;;;40.58;22.75;;;;;;;5.83;100.00;100040.83;1679801;83;20947;-74
2022/11/07 05:21:02;;;;;;;42.05;22.55;;;;;;;5.84;100.00;100034.29;1701475;82;21058;-71
2022/11/07 05:23:36;;;;;;;38.35;22.27;;;;;;;5.85;100.00;100042.73;1659516;86;21015;-78
2022/11/07 05:26:04;;;;;;;40.15;22.22;;;;;;;5.86;100.00;100042.19;1659310;85;21000;-73
2022/11/07 05:28:40;;;;;;;37.65;21.40;;;;;;;5.87;100.00;100047.91;1661697;85;21171;-78
2022/11/07 05:31:13;;;;;;;42.10;22.50;;;;;;;5.86;100.00;100041.64;1648429;86;21046;-79
2022/11/07 05:33:43;;;;;;;42.62;22.80;;;;;;;5.87;100.00;100054.72;1657197;84;21549;-77
2022/11/07 05:36:18;;;;;;;37.78;22.42;;;;;;;5.84;100.00;100050.64;1640536;86;20991;-72
2022/11/07 05:38:48;;;;;;;37.70;21.55;;;;;;;5.85;100.00;100051.45;1638868;85;21177;-72
2022/11/07 05:41:19;;;;;;;37.83;22.40;;;;;;;5.84;100.00;100045.19;1654523;85;21786;-77
2022/11/07 05:43:47;;;;;;;40.33;22.20;;;;;;;5.82;100.00;100050.63;1644135;85;21624;-78
2022/11/07 05:46:21;;;;;;;34.65;20.82;;;;;;;5.84;100.00;100063.44;1646775;85;21566;-78
2022/11/07 05:48:53;;;;;;;44.67;22.50;;;;;;;5.84;100.00;100066.98;1646669;85;21003;-76
2022/11/07 05:51:26;;;;;;;32.65;19.95;;;;;;;5.83;100.00;100066.71;1658675;85;21499;-80
2022/11/07 05:53:55;;;;;;;33.65;19.00;;;;;;;5.84;100.00;100076.52;1657173;85;21491;-79
2022/11/07 05:56:26;;;;;;;35.33;18.55;;;;;;;5.84;100.00;100078.42;1647790;85;21467;-79
2022/11/07 05:58:56;;;;;;;42.10;20.68;;;;;;;5.83;100.00;100069.44;1640225;85;21169;-75
2022/11/07 06:01:28;;;;;;;38.10;19.80;;;;;;;5.81;100.00;100078.97;1639176;85;21431;-76
2022/11/07 06:03:59;;;;;;;36.97;20.13;;;;;;;5.82;100.00;100080.06;1637909;85;21110;-73
2022/11/07 06:06:24;;;;;;;35.40;20.92;;;;;;;5.83;100.00;100089.87;1654813;85;21664;-73
2022/11/07 06:08:53;;;;;;;37.05;20.08;;;;;;;5.82;100.00;100086.88;1642804;84;21494;-73
2022/11/07 06:11:27;;;;;;;38.17;19.37;;;;;;;5.81;100.00;100083.05;1623537;86;21578;-71
2022/11/07 06:13:57;;;;;;;46.37;19.70;;;;;;;5.80;100.00;100086.33;1651746;85;20983;-75
2022/11/07 06:16:26;;;;;;;38.00;21.33;;;;;;;5.78;100.00;100091.23;1633446;85;21153;-77
2022/11/07 06:19:01;;;;;;;31.80;17.98;;;;;;;5.76;100.00;100095.34;1634978;86;21144;-76
2022/11/07 06:21:36;;;;;;;33.53;18.42;;;;;;;5.70;100.00;100086.34;1631212;87;21024;-75
2022/11/07 06:24:08;;;;;;;31.15;17.85;;;;;;;5.70;100.00;100086.34;1631351;87;21531;-72
2022/11/07 06:26:37;;;;;;;35.15;19.15;;;;;;;5.70;100.00;100096.42;1632790;85;21071;-73
2022/11/07 06:29:06;;;;;;;34.15;19.57;;;;;;;5.70;100.00;100093.16;1635220;87;21064;-72
2022/11/07 06:31:36;;;;;;;35.45;19.55;;;;;;;5.68;100.00;100093.97;1637953;86;21918;-73
2022/11/07 06:34:09;;;;;;;36.03;20.37;;;;;;;5.68;100.00;100088.52;1630967;87;21403;-72
2022/11/07 06:36:39;;;;;;;33.35;19.62;;;;;;;5.68;100.00;100098.05;1635785;85;21066;-73
2022/11/07 06:39:10;;;;;;;33.08;19.60;;;;;;;5.66;100.00;100094.78;1636315;86;21010;-74
2022/11/07 06:41:40;;;;;;;35.50;19.37;;;;;;;5.68;100.00;100097.23;1662553;86;21019;-74
2022/11/07 06:44:13;;;;;;;31.60;17.50;;;;;;;5.67;100.00;100099.69;1659252;86;21151;-72
2022/11/07 06:46:48;;;;;;;26.95;17.60;;;;;;;5.69;100.00;100098.87;1634668;85;20942;-76
2022/11/07 06:49:16;;;;;;;31.00;18.55;;;;;;;5.68;100.00;100100.78;1631572;86;21038;-78
2022/11/07 06:51:48;;;;;;;30.08;17.80;;;;;;;5.68;100.00;100104.86;1630422;87;21452;-72
2022/11/07 06:54:15;;;;;;;28.80;17.92;;;;;;;5.69;100.00;100098.87;1661517;85;21153;-73
2022/11/07 06:56:41;;;;;;;27.25;16.40;;;;;;;5.62;100.00;100101.31;1658445;86;21734;-77
2022/11/07 06:59:08;;;;;;;28.52;16.93;;;;;;;5.62;100.00;100101.31;1661483;86;21497;-77
2022/11/07 07:01:34;;;;;;;30.10;19.35;;;;;;;5.53;100.00;100101.56;1631685;87;21044;-73
2022/11/07 07:04:04;;;;;;;27.48;16.97;;;;;;;5.53;100.00;100101.56;1660327;85;21140;-79
2022/11/07 07:06:31;;;;;;;28.42;17.45;;;;;;;5.47;100.00;100099.09;1660025;86;21088;-78
2022/11/07 07:08:57;;;;;;;33.13;19.60;;;;;;;5.41;100.00;100093.36;1660644;86;21263;-69
2022/11/07 07:11:24;;;;;;;30.15;17.48;;;;;;;5.35;100.00;100099.33;1625525;86;21019;-73
2022/11/07 07:13:51;;;;;;;26.10;16.70;;;;;;;5.29;100.00;100103.94;1630441;86;21559;-79
2022/11/07 07:16:18;;;;;;;33.85;18.77;;;;;;;5.25;100.00;100100.66;1646352;84;20923;-76
2022/11/07 07:18:44;;;;;;;32.75;18.80;;;;;;;5.23;100.00;100102.83;1646027;84;21027;-75
2022/11/07 07:21:13;;;;;;;30.55;18.12;;;;;;;5.22;100.00;100106.09;1636735;86;21149;-74
2022/11/07 07:23:39;;;;;;;37.73;19.12;;;;;;;5.22;100.00;100100.65;1639423;85;20940;-74
2022/11/07 07:26:13;;;;;;;30.60;18.27;;;;;;;5.23;100.00;100105.00;1649046;86;40547;-73
2022/11/07 07:28:40;;;;;;;35.40;19.62;;;;;;;5.23;100.00;100106.37;1639277;83;21027;-77
2022/11/07 07:31:18;;;;;;;31.48;18.98;;;;;;;5.22;100.00;100108.81;1627059;84;21036;-81
2022/11/07 07:33:46;;;;;;;32.90;18.92;;;;;;;5.22;100.00;100102.00;1631294;86;21219;-87
2022/11/07 07:36:13;;;;;;;31.75;17.70;;;;;;;5.22;100.00;100104.73;1630274;87;21046;-77
2022/11/07 07:38:40;;;;;;;34.83;19.45;;;;;;;5.19;100.00;100098.48;1630710;86;20998;-76
2022/11/07 07:41:07;;;;;;;29.95;18.65;;;;;;;5.19;100.00;100098.48;1638654;85;21564;-77
2022/11/07 07:43:33;;;;;;;31.93;19.37;;;;;;;5.17;100.00;100099.30;1642049;85;20985;-77
2022/11/07 07:46:02;;;;;;;33.38;20.02;;;;;;;5.16;100.00;100105.83;1661393;85;21554;-75
2022/11/07 07:48:29;;;;;;;30.17;19.20;;;;;;;5.12;100.00;100092.47;1659061;85;20949;-76
2022/11/07 07:50:57;;;;;;;34.70;20.17;;;;;;;5.12;100.00;100092.47;1662568;84;21075;-74
2022/11/07 07:53:24;;;;;;;30.77;19.12;;;;;;;5.10;100.00;100096.00;1660935;85;20928;-76
2022/11/07 07:55:56;;;;;;;35.90;20.30;;;;;;;5.10;100.00;100097.36;1645491;85;20975;-74
2022/11/07 07:58:25;;;;;;;32.60;18.73;;;;;;;5.08;100.00;100095.45;1673218;85;21304;-73
2022/11/07 08:00:53;;;;;;;40.45;20.77;;;;;;;5.08;100.00;100091.91;1673086;84;21069;-77
2022/11/07 08:03:20;;;;;;;33.40;20.40;;;;;;;5.04;100.00;100087.54;1674229;84;21027;-77
2022/11/07 08:05:56;;;;;;;30.65;19.20;;;;;;;5.05;100.00;100089.72;1677556;84;20904;-80
2022/11/07 08:08:22;;;;;;;36.40;20.02;;;;;;;5.05;100.00;100089.17;1672043;83;20954;-77
2022/11/07 08:10:58;;;;;;;33.88;19.30;;;;;;;5.06;100.00;100098.16;1686813;83;21789;-77
2022/11/07 08:13:26;;;;;;;31.52;19.12;;;;;;;5.04;100.00;100097.61;1698738;83;20914;-77
2022/11/07 08:15:59;;;;;;;33.13;19.95;;;;;;;5.06;100.00;100107.69;1689501;84;20998;-75
2022/11/07 08:18:28;;;;;;;34.65;21.00;;;;;;;5.09;100.00;100115.31;1681291;83;21066;-74
2022/11/07 08:20:58;;;;;;;29.60;18.87;;;;;;;5.09;100.00;100115.31;1674954;83;21106;-72
2022/11/07 08:23:26;;;;;;;33.18;18.82;;;;;;;5.10;100.00;100121.86;1686848;84;21209;-73
2022/11/07 08:25:57;;;;;;;26.10;17.60;;;;;;;5.09;100.00;100120.77;1694290;82;21592;-77
2022/11/07 08:28:34;;;;;;;38.13;19.62;;;;;;;5.12;100.00;100123.77;1677931;84;21046;-75
2022/11/07 08:31:08;;;;;;;35.38;19.95;;;;;;;5.12;100.00;100123.77;1692852;82;21657;-71
2022/11/07 08:33:39;;;;;;;33.92;18.87;;;;;;;5.20;100.00;100130.61;1666891;84;21010;-80
2022/11/07 08:36:18;;;;;;;31.97;18.85;;;;;;;5.20;100.00;100130.61;1683548;83;21783;-73
2022/11/07 08:38:47;;;;;;;34.63;19.32;;;;;;;5.22;100.00;100133.31;1681532;82;20948;-81
2022/11/07 08:41:18;;;;;;;31.50;19.70;;;;;;;5.25;100.00;100131.42;1675740;83;21526;-74
2022/11/07 08:43:50;;;;;;;32.85;18.23;;;;;;;5.25;100.00;100131.42;1668483;84;21544;-73
2022/11/07 08:46:22;;;;;;;30.77;18.02;;;;;;;5.28;100.00;100128.16;1684782;84;21594;-80
2022/11/07 08:48:55;;;;;;;36.15;18.85;;;;;;;5.28;100.00;100124.08;1684422;84;21156;-76
2022/11/07 08:51:23;;;;;;;32.93;19.07;;;;;;;5.31;100.00;100122.19;1683997;83;21085;-76
2022/11/07 08:53:52;;;;;;;36.60;18.07;;;;;;;5.35;100.00;100121.66;1670140;84;21098;-76
2022/11/07 08:56:23;;;;;;;34.88;20.10;;;;;;;5.37;100.00;100123.02;1654051;84;21160;-76
2022/11/07 08:58:53;;;;;;;31.35;18.65;;;;;;;5.39;100.00;100122.21;1690679;83;20971;-76
2022/11/07 09:01:25;;;;;;;37.35;21.27;;;;;;;5.44;100.00;100121.41;1689753;84;21877;-78
2022/11/07 09:03:54;;;;;;;31.30;18.70;;;;;;;5.43;100.00;100111.61;1681597;83;21124;-77
2022/11/07 09:06:22;;;;;;;31.52;18.48;;;;;;;5.43;100.00;100111.61;1651294;85;20997;-77
2022/11/07 09:08:53;;;;;;;27.48;18.02;;;;;;;5.46;100.00;100114.61;1635459;85;21079;-81
2022/11/07 09:11:28;;;;;;;33.30;20.32;;;;;;;5.49;100.00;100107.81;1633016;86;21456;-79
2022/11/07 09:14:01;;;;;;;37.00;19.73;;;;;;;5.52;100.00;100110.00;1640762;85;21885;-74
2022/11/07 09:16:26;;;;;;;30.12;18.35;;;;;;;5.53;100.00;100111.09;1644043;85;21110;-75
2022/11/07 09:18:57;;;;;;;32.03;17.98;;;;;;;5.61;100.00;100111.92;1605300;87;21146;-72
2022/11/07 09:21:29;;;;;;;29.32;18.02;;;;;;;5.61;100.00;100111.92;1635853;85;21075;-72
2022/11/07 09:23:56;;;;;;;35.25;19.55;;;;;;;5.63;100.00;100103.48;1614958;85;21030;-81
2022/11/07 09:26:22;;;;;;;31.45;18.40;;;;;;;5.67;100.00;100098.32;1615132;86;21215;-81
2022/11/07 09:28:56;;;;;;;32.83;18.55;;;;;;;5.73;100.00;100096.70;1632109;86;21469;-77
2022/11/07 09:31:24;;;;;;;32.03;18.20;;;;;;;5.73;100.00;100096.70;1616609;86;21082;-83
2022/11/07 09:33:51;;;;;;;35.55;20.72;;;;;;;5.75;100.00;100090.98;1619560;86;20956;-86
2022/11/07 09:36:17;;;;;;;35.75;20.32;;;;;;;5.76;100.00;100089.34;1659566;85;21530;-76
2022/11/07 09:38:45;;;;;;;30.80;19.17;;;;;;;5.81;100.00;100087.96;1660075;84;21161;-69
2022/11/07 09:41:44;;;;;;;29.65;19.00;;;;;;;5.81;100.00;100087.96;1655083;85;21022;-71
2022/11/07 09:44:26;;;;;;;38.75;21.65;;;;;;;5.84;100.00;100081.97;1673245;85;21058;-71
2022/11/07 09:47:15;;;;;;;38.10;21.75;;;;;;;5.89;100.00;100086.64;1666980;85;21673;-85
2022/11/07 09:49:52;;;;;;;43.73;22.58;;;;;;;5.91;100.00;100079.01;1656725;85;22032;-79
2022/11/07 09:52:48;;;;;;;41.00;22.73;;;;;;;5.91;100.00;100066.20;1695280;83;21121;-79
2022/11/07 09:55:20;;;;;;;46.95;23.27;;;;;;;5.94;100.00;100067.02;1690677;83;21606;-69
2022/11/07 09:57:52;;;;;;;34.65;21.97;;;;;;;5.97;100.00;100058.84;1671390;84;20964;-73
2022/11/07 10:00:22;;;;;;;36.88;20.90;;;;;;;6.01;100.00;100053.67;1675650;82;21088;-76
2022/11/07 10:02:55;;;;;;;37.73;21.75;;;;;;;6.04;100.00;100047.67;1693098;83;21085;-76
2022/11/07 10:06:04;;;;;;;33.02;20.50;;;;;;;6.07;100.00;100052.58;1689974;84;21244;-73
2022/11/07 10:08:50;;;;;;;32.80;19.65;;;;;;;6.13;100.00;100051.48;1695870;83;20936;-75
2022/11/07 10:11:39;;;;;;;34.10;19.80;;;;;;;6.21;100.00;100047.66;1685302;84;21015;-77
2022/11/07 10:14:45;;;;;;;32.45;18.95;;;;;;;6.28;100.00;100052.83;1687723;83;20975;-78
2022/11/07 10:17:36;;;;;;;33.83;18.45;;;;;;;6.33;100.00;100050.64;1692607;83;21066;-73
2022/11/07 10:20:23;;;;;;;30.62;18.62;;;;;;;6.38;100.00;100040.51;1687736;84;21465;-74
2022/11/07 10:23:08;;;;;;;29.87;17.82;;;;;;;6.43;100.00;100036.41;1693281;83;21482;-79
2022/11/07 10:25:43;;;;;;;27.27;17.52;;;;;;;6.48;100.00;100036.39;1672973;84;21071;-73
2022/11/07 10:28:17;;;;;;;29.18;17.52;;;;;;;6.52;100.00;100025.20;1693408;82;21538;-83
2022/11/07 10:30:49;;;;;;;29.37;17.05;;;;;;;6.57;100.00;100030.65;1647020;85;21035;-88
2022/11/07 10:33:40;;;;;;;29.23;17.57;;;;;;;6.65;100.00;100030.63;1674315;85;21190;-74
2022/11/07 10:36:32;;;;;;;28.20;17.85;;;;;;;6.67;100.00;100023.52;1660976;85;21044;-84
2022/11/07 10:39:19;;;;;;;28.83;17.77;;;;;;;6.68;100.00;100015.61;1674037;85;20996;-82
2022/11/07 10:42:11;;;;;;;36.68;19.70;;;;;;;6.73;100.00;100009.59;1692504;82;20960;-79
2022/11/07 10:44:41;;;;;;;29.55;17.32;;;;;;;6.78;100.00;100003.30;1666237;85;21029;-79
2022/11/07 10:47:26;;;;;;;34.38;18.15;;;;;;;6.84;100.00;99994.80;1679722;85;21153;-82
2022/11/07 10:50:01;;;;;;;28.27;17.12;;;;;;;6.93;100.00;99990.95;1669116;85;21113;-71
2022/11/07 10:52:30;;;;;;;30.43;16.60;;;;;;;6.96;100.00;99991.72;1639888;85;21062;-76
2022/11/07 10:55:15;;;;;;;29.05;15.88;;;;;;;6.98;100.00;99982.70;1660719;86;20965;-72
2022/11/07 10:57:58;;;;;;;32.80;18.15;;;;;;;7.04;100.00;99984.85;1685045;83;20894;-71
2022/11/07 11:00:39;;;;;;;28.50;15.95;;;;;;;7.06;100.00;99983.47;1622927;86;20916;-82
2022/11/07 11:03:20;;;;;;;27.35;15.90;;;;;;;7.12;100.00;99981.53;1595178;88;21014;-75
2022/11/07 11:05:54;;;;;;;28.57;16.00;;;;;;;7.16;100.00;99976.59;1607832;86;21087;-73
2022/11/07 11:08:26;;;;;;;30.17;16.87;;;;;;;7.20;100.00;99976.84;1619756;86;21015;-72
2022/11/07 11:10:51;;;;;;;34.27;19.12;;;;;;;7.25;100.00;99969.44;1608991;85;20971;-76
2022/11/07 11:13:33;;;;;;;30.00;15.70;;;;;;;7.33;100.00;99965.84;1620684;85;21116;-78
2022/11/07 11:16:32;;;;;;;28.90;15.70;;;;;;;7.36;100.00;99958.44;1630823;86;20952;-76
2022/11/07 11:19:09;;;;;;;22.07;14.65;;;;;;;7.38;100.00;99965.80;1617307;87;21532;-79
2022/11/07 11:21:45;;;;;;;26.37;14.98;;;;;;;7.36;100.00;99966.63;1638601;86;21030;-79
2022/11/07 11:24:34;;;;;;;26.20;14.60;;;;;;;7.36;100.00;99961.17;1616605;87;21106;-84
2022/11/07 11:27:16;;;;;;;23.57;13.65;;;;;;;7.41;100.00;99954.30;1674529;85;21228;-76
2022/11/07 11:30:06;;;;;;;22.30;14.30;;;;;;;7.49;100.00;99955.88;1691699;83;20999;-76
2022/11/07 11:32:49;;;;;;;22.42;14.25;;;;;;;7.53;100.00;99958.83;1665481;83;21581;-76
2022/11/07 11:35:35;;;;;;;26.97;16.65;;;;;;;7.58;100.00;99960.97;1689414;83;20999;-79
2022/11/07 11:38:29;;;;;;;26.02;15.75;;;;;;;7.61;100.00;99965.86;1653195;84;21009;-76
2022/11/07 11:41:28;;;;;;;25.62;15.20;;;;;;;7.62;100.00;99959.84;1691922;84;21578;-78
2022/11/07 11:44:12;;;;;;;21.12;13.05;;;;;;;7.67;100.00;99951.61;1692067;83;20903;-75
2022/11/07 11:47:29;;;;;;;23.07;14.03;;;;;;;7.74;100.00;99945.26;1687263;84;21011;-83